Time,TemperatureF,DewpointF,PressureIn,WindDirection,WindDirectionDegrees,WindSpeedMPH,WindSpeedGustMPH,Humidity,HourlyPrecipIn,Conditions,Clouds,dailyrainin,SoftwareType,DateUTC
2013-01-04 00:13:00,31.3,27.0,30.30,East,98,0.0,1.0,83,0.00,,,0.00,weatherlink.com 1.10,2013-01-04 05:13:00,
2013-01-04 00:43:00,31.1,27.0,30.31,East,98,0.0,0.0,84,0.00,,,0.00,weatherlink.com 1.10,2013-01-04 05:43:00,
2013-01-04 00:59:00,30.1,27.0,30.31,East,98,0.0,0.0,87,0.00,,,0.00,weatherlink.com 1.10,2013-01-04 05:59:00,
2013-01-04 01:14:00,29.4,27.0,30.31,East,98,0.0,0.0,90,0.00,,,0.00,weatherlink.com 1.10,2013-01-04 06:14:00,
2013-01-04 01:29:00,30.0,28.0,30.30,East,98,0.0,1.0,90,0.00,,,0.00,weatherlink.com 1.10,2013-01-04 06:29:00,
2013-01-04 01:44:00,30.3,27.0,30.30,East,98,0.0,2.0,88,0.00,,,0.00,weatherlink.com 1.10,2013-01-04 06:44:00,
2013-01-04 01:59:00,30.1,26.0,30.30,East,98,0.0,1.0,85,0.00,,,0.00,weatherlink.com 1.10,2013-01-04 06:59:00,
2013-01-04 02:14:00,29.7,26.0,30.30,East,98,0.0,0.0,86,0.00,,,0.00,weatherlink.com 1.10,2013-01-04 07:14:00,
2013-01-04 02:29:00,29.5,26.0,30.30,NE,37,3.0,4.0,86,0.00,,,0.00,weatherlink.com 1.10,2013-01-04 07:29:00,
2013-01-04 02:44:00,29.6,26.0,30.31,NE,40,0.0,1.0,85,0.00,,,0.00,weatherlink.com 1.10,2013-01-04 07:44:00,
2013-01-04 02:59:00,29.0,25.0,30.31,NE,40,0.0,1.0,86,0.00,,,0.00,weatherlink.com 1.10,2013-01-04 07:59:00,
2013-01-04 03:14:00,29.0,26.0,30.31,NE,40,0.0,2.0,87,0.00,,,0.00,weatherlink.com 1.10,2013-01-04 08:14:00,
2013-01-04 03:29:00,29.0,25.0,30.31,NE,40,0.0,1.0,86,0.00,,,0.00,weatherlink.com 1.10,2013-01-04 08:29:00,
2013-01-04 03:44:00,28.0,25.0,30.31,NE,40,1.0,3.0,88,0.00,,,0.00,weatherlink.com 1.10,2013-01-04 08:44:00,
2013-01-04 03:59:00,28.0,25.0,30.30,NE,40,0.0,3.0,88,0.00,,,0.00,weatherlink.com 1.10,2013-01-04 08:59:00,
2013-01-04 04:14:00,28.2,25.0,30.30,NE,48,0.0,3.0,88,0.00,,,0.00,weatherlink.com 1.10,2013-01-04 09:14:00,
2013-01-04 04:29:00,29.2,25.0,30.30,ENE,77,1.0,3.0,85,0.00,,,0.00,weatherlink.com 1.10,2013-01-04 09:29:00,
2013-01-04 04:44:00,30.3,25.0,30.30,ENE,73,0.0,5.0,82,0.00,,,0.00,weatherlink.com 1.10,2013-01-04 09:44:00,
2013-01-04 05:14:00,29.4,25.0,30.30,ENE,58,0.0,4.0,83,0.00,,,0.00,weatherlink.com 1.10,2013-01-04 10:14:00,
2013-01-04 05:29:00,29.5,24.0,30.30,ENE,64,1.0,3.0,81,0.00,,,0.00,weatherlink.com 1.10,2013-01-04 10:29:00,
2013-01-04 05:44:00,30.0,24.0,30.30,NE,48,1.0,4.0,79,0.00,,,0.00,weatherlink.com 1.10,2013-01-04 10:44:00,
2013-01-04 05:59:00,30.2,24.0,30.31,NNE,31,2.0,5.0,78,0.00,,,0.00,weatherlink.com 1.10,2013-01-04 10:59:00,
2013-01-04 06:14:00,29.7,24.0,30.31,NE,56,0.0,2.0,79,0.00,,,0.00,weatherlink.com 1.10,2013-01-04 11:14:00,
2013-01-04 06:29:00,28.8,24.0,30.32,NE,56,0.0,1.0,81,0.00,,,0.00,weatherlink.com 1.10,2013-01-04 11:29:00,
2013-01-04 06:44:00,27.1,23.0,30.33,NE,56,1.0,2.0,83,0.00,,,0.00,weatherlink.com 1.10,2013-01-04 11:44:00,
2013-01-04 06:59:00,26.5,23.0,30.33,NE,56,0.0,1.0,87,0.00,,,0.00,weatherlink.com 1.10,2013-01-04 11:59:00,
2013-01-04 07:14:00,27.4,23.0,30.34,NE,56,0.0,1.0,84,0.00,,,0.00,weatherlink.com 1.10,2013-01-04 12:14:00,
2013-01-04 07:29:00,28.1,23.0,30.33,NE,52,0.0,2.0,82,0.00,,,0.00,weatherlink.com 1.10,2013-01-04 12:29:00,
2013-01-04 07:44:00,27.2,23.0,30.34,NE,52,0.0,2.0,84,0.00,,,0.00,weatherlink.com 1.10,2013-01-04 12:44:00,
2013-01-04 07:59:00,26.2,23.0,30.34,NE,52,0.0,2.0,86,0.00,,,0.00,weatherlink.com 1.10,2013-01-04 12:59:00,
2013-01-04 08:14:00,26.5,23.0,30.34,NE,52,0.0,1.0,86,0.00,,,0.00,weatherlink.com 1.10,2013-01-04 13:14:00,
2013-01-04 08:29:00,27.9,24.0,30.34,NE,54,0.0,0.0,86,0.00,,,0.00,weatherlink.com 1.10,2013-01-04 13:29:00,
2013-01-04 08:45:00,28.8,25.0,30.35,NE,54,0.0,0.0,86,0.00,,,0.00,weatherlink.com 1.10,2013-01-04 13:45:00,
2013-01-04 09:00:00,30.6,27.0,30.35,NE,54,0.0,1.0,85,0.00,,,0.00,weatherlink.com 1.10,2013-01-04 14:00:00,
2013-01-04 09:15:00,32.3,28.0,30.36,NE,54,0.0,1.0,84,0.00,,,0.00,weatherlink.com 1.10,2013-01-04 14:15:00,
2013-01-04 09:30:00,34.1,29.0,30.36,ESE,112,2.0,2.0,80,0.00,,,0.00,weatherlink.com 1.10,2013-01-04 14:30:00,
2013-01-04 09:45:00,36.0,27.0,30.36,ESE,112,0.0,1.0,70,0.00,,,0.00,weatherlink.com 1.10,2013-01-04 14:45:00,
2013-01-04 10:00:00,37.3,28.0,30.36,East,96,0.0,2.0,68,0.00,,,0.00,weatherlink.com 1.10,2013-01-04 15:00:00,
2013-01-04 10:15:00,38.5,26.0,30.36,SE,128,0.0,4.0,60,0.00,,,0.00,weatherlink.com 1.10,2013-01-04 15:15:00,
2013-01-04 10:30:00,39.5,26.0,30.35,South,181,0.0,2.0,60,0.00,,,0.00,weatherlink.com 1.10,2013-01-04 15:30:00,
2013-01-04 10:45:00,41.1,26.0,30.35,South,182,0.0,2.0,56,0.00,,,0.00,weatherlink.com 1.10,2013-01-04 15:45:00,
2013-01-04 11:00:00,41.6,26.0,30.35,SSE,147,0.0,4.0,54,0.00,,,0.00,weatherlink.com 1.10,2013-01-04 16:00:00,
2013-01-04 11:15:00,42.1,26.0,30.34,SSE,157,3.0,4.0,53,0.00,,,0.00,weatherlink.com 1.10,2013-01-04 16:15:00,
2013-01-04 11:30:00,42.8,26.0,30.34,SSE,156,0.0,3.0,52,0.00,,,0.00,weatherlink.com 1.10,2013-01-04 16:30:00,
2013-01-04 11:45:00,43.8,27.0,30.34,South,184,5.0,6.0,51,0.00,,,0.00,weatherlink.com 1.10,2013-01-04 16:45:00,
2013-01-04 12:00:00,44.2,25.0,30.33,East,91,1.0,5.0,48,0.00,,,0.00,weatherlink.com 1.10,2013-01-04 17:00:00,
2013-01-04 12:15:00,44.3,25.0,30.32,SSW,206,2.0,6.0,46,0.00,,,0.00,weatherlink.com 1.10,2013-01-04 17:15:00,
2013-01-04 12:30:00,46.4,25.0,30.30,NNW,331,0.0,8.0,44,0.00,,,0.00,weatherlink.com 1.10,2013-01-04 17:30:00,
2013-01-04 12:45:00,46.5,25.0,30.30,ESE,115,1.0,7.0,44,0.00,,,0.00,weatherlink.com 1.10,2013-01-04 17:45:00,
2013-01-04 13:00:00,46.0,25.0,30.29,ESE,110,1.0,6.0,44,0.00,,,0.00,weatherlink.com 1.10,2013-01-04 18:00:00,
2013-01-04 13:15:00,47.7,25.0,30.28,SSE,158,1.0,5.0,41,0.00,,,0.00,weatherlink.com 1.10,2013-01-04 18:15:00,
2013-01-04 13:30:00,49.6,25.0,30.27,ENE,61,3.0,6.0,38,0.00,,,0.00,weatherlink.com 1.10,2013-01-04 18:30:00,
2013-01-04 13:46:00,49.7,24.0,30.26,East,92,0.0,5.0,36,0.00,,,0.00,weatherlink.com 1.10,2013-01-04 18:46:00,
2013-01-04 14:01:00,49.9,24.0,30.25,East,92,3.0,5.0,36,0.00,,,0.00,weatherlink.com 1.10,2013-01-04 19:01:00,
2013-01-04 14:16:00,50.1,23.0,30.25,South,169,2.0,5.0,35,0.00,,,0.00,weatherlink.com 1.10,2013-01-04 19:16:00,
2013-01-04 14:31:00,51.3,23.0,30.25,NW,312,1.0,6.0,33,0.00,,,0.00,weatherlink.com 1.10,2013-01-04 19:31:00,
2013-01-04 14:46:00,50.9,23.0,30.24,SSW,192,2.0,6.0,33,0.00,,,0.00,weatherlink.com 1.10,2013-01-04 19:46:00,
2013-01-04 15:01:00,52.3,24.0,30.25,WSW,258,3.0,4.0,33,0.00,,,0.00,weatherlink.com 1.10,2013-01-04 20:01:00,
2013-01-04 15:16:00,53.0,22.0,30.24,NNE,29,0.0,5.0,30,0.00,,,0.00,weatherlink.com 1.10,2013-01-04 20:16:00,
2013-01-04 15:31:00,51.3,20.0,30.24,NW,318,2.0,4.0,29,0.00,,,0.00,weatherlink.com 1.10,2013-01-04 20:31:00,
2013-01-04 15:46:00,51.7,17.0,30.24,West,272,7.0,9.0,25,0.00,,,0.00,weatherlink.com 1.10,2013-01-04 20:46:00,
2013-01-04 16:01:00,52.1,17.0,30.25,WNW,302,6.0,12.0,25,0.00,,,0.00,weatherlink.com 1.10,2013-01-04 21:01:00,
2013-01-04 16:16:00,51.6,17.0,30.26,NW,308,5.0,11.0,25,0.00,,,0.00,weatherlink.com 1.10,2013-01-04 21:16:00,
2013-01-04 16:46:00,50.4,17.0,30.27,NW,311,5.0,8.0,27,0.00,,,0.00,weatherlink.com 1.10,2013-01-04 21:46:00,
2013-01-04 17:01:00,49.2,15.0,30.27,NW,325,6.0,9.0,25,0.00,,,0.00,weatherlink.com 1.10,2013-01-04 22:01:00,
2013-01-04 17:16:00,47.5,15.0,30.27,NW,313,3.0,8.0,27,0.00,,,0.00,weatherlink.com 1.10,2013-01-04 22:16:00,
2013-01-04 17:31:00,45.8,14.0,30.29,NW,326,3.0,9.0,28,0.00,,,0.00,weatherlink.com 1.10,2013-01-04 22:31:00,
2013-01-04 17:46:00,44.4,15.0,30.30,NNW,338,2.0,7.0,31,0.00,,,0.00,weatherlink.com 1.10,2013-01-04 22:46:00,
2013-01-04 18:01:00,43.7,14.0,30.31,West,272,2.0,9.0,30,0.00,,,0.00,weatherlink.com 1.10,2013-01-04 23:01:00,
2013-01-04 18:16:00,42.7,16.0,30.31,NW,304,2.0,11.0,34,0.00,,,0.00,weatherlink.com 1.10,2013-01-04 23:16:00,
2013-01-04 18:31:00,41.9,17.0,30.33,NNE,33,2.0,7.0,36,0.00,,,0.00,weatherlink.com 1.10,2013-01-04 23:31:00,
2013-01-04 18:46:00,41.0,18.0,30.33,ESE,121,2.0,3.0,39,0.00,,,0.00,weatherlink.com 1.10,2013-01-04 23:46:00,
2013-01-04 19:01:00,39.7,18.0,30.34,East,84,0.0,2.0,41,0.00,,,0.00,weatherlink.com 1.10,2013-01-05 00:01:00,
2013-01-04 19:16:00,38.9,19.0,30.34,NW,322,3.0,4.0,45,0.00,,,0.00,weatherlink.com 1.10,2013-01-05 00:16:00,
2013-01-04 19:31:00,38.6,19.0,30.35,NNE,25,2.0,6.0,46,0.00,,,0.00,weatherlink.com 1.10,2013-01-05 00:31:00,
2013-01-04 19:46:00,38.1,17.0,30.35,North,8,4.0,8.0,42,0.00,,,0.00,weatherlink.com 1.10,2013-01-05 00:46:00,
2013-01-04 20:01:00,37.6,17.0,30.35,North,359,1.0,7.0,44,0.00,,,0.00,weatherlink.com 1.10,2013-01-05 01:01:00,
2013-01-04 20:16:00,38.0,17.0,30.36,NNE,33,0.0,5.0,43,0.00,,,0.00,weatherlink.com 1.10,2013-01-05 01:16:00,
2013-01-04 20:31:00,37.4,18.0,30.35,NNW,339,4.0,7.0,45,0.00,,,0.00,weatherlink.com 1.10,2013-01-05 01:31:00,
2013-01-04 20:46:00,37.0,19.0,30.35,NW,319,0.0,4.0,48,0.00,,,0.00,weatherlink.com 1.10,2013-01-05 01:46:00,
2013-01-04 21:01:00,34.5,20.0,30.35,NW,305,0.0,5.0,56,0.00,,,0.00,weatherlink.com 1.10,2013-01-05 02:01:00,
2013-01-04 21:16:00,34.1,18.0,30.35,ENE,66,3.0,4.0,52,0.00,,,0.00,weatherlink.com 1.10,2013-01-05 02:16:00,
2013-01-04 21:31:00,35.3,18.0,30.36,ESE,110,0.0,3.0,50,0.00,,,0.00,weatherlink.com 1.10,2013-01-05 02:31:00,
2013-01-04 21:46:00,34.7,19.0,30.35,NNE,26,2.0,5.0,52,0.00,,,0.00,weatherlink.com 1.10,2013-01-05 02:46:00,
2013-01-04 22:01:00,33.8,19.0,30.35,North,350,1.0,4.0,56,0.00,,,0.00,weatherlink.com 1.10,2013-01-05 03:01:00,
2013-01-04 22:16:00,33.8,20.0,30.36,NNE,20,2.0,8.0,57,0.00,,,0.00,weatherlink.com 1.10,2013-01-05 03:16:00,
2013-01-04 22:31:00,33.8,20.0,30.36,North,350,0.0,8.0,58,0.00,,,0.00,weatherlink.com 1.10,2013-01-05 03:31:00,
2013-01-04 22:46:00,34.2,21.0,30.35,WNW,303,4.0,7.0,59,0.00,,,0.00,weatherlink.com 1.10,2013-01-05 03:46:00,
2013-01-04 23:01:00,33.7,21.0,30.35,North,359,2.0,4.0,59,0.00,,,0.00,weatherlink.com 1.10,2013-01-05 04:01:00,
2013-01-04 23:16:00,32.5,21.0,30.35,SSE,168,1.0,4.0,63,0.00,,,0.00,weatherlink.com 1.10,2013-01-05 04:16:00,
2013-01-04 23:31:00,32.6,21.0,30.35,East,95,0.0,2.0,62,0.00,,,0.00,weatherlink.com 1.10,2013-01-05 04:31:00,
2013-01-04 23:46:00,33.8,21.0,30.35,ENE,67,2.0,4.0,59,0.00,,,0.00,weatherlink.com 1.10,2013-01-05 04:46:00,